YBS YMMB-YSWG
Flight info
| Callsign | YBS |
|---|---|
| Flight time | 1h 53m |
| Altitude | 15000 |
| Route | YMMB DCT YSWG |
| Aircraft | DA42/L-V/N |
Departure
| Time | 2026-05-04 09:51 |
|---|---|
| Airport | Melbourne Moorabbin Airport (YMMB) |
Arrival
| Time | 2026-05-04 11:44 |
|---|---|
| Airport | Wagga Wagga Airport (YSWG) |
| Time | Latitude | Longitude | Altitude | Speed | Heading |
|---|---|---|---|---|---|
| 2026-05-04 09:23 | -37.97783 | 145.09591 | 47 ft | 0 kts | 8° |
| 2026-05-04 09:35 | -37.97766 | 145.09594 | 47 ft | 3 kts | 8° |
| 2026-05-04 09:35 | -37.97742 | 145.09595 | 47 ft | 4 kts | 355° |
| 2026-05-04 09:35 | -37.97704 | 145.09595 | 48 ft | 10 kts | 1° |
| 2026-05-04 09:37 | -37.97372 | 145.09585 | 52 ft | 0 kts | 88° |
| 2026-05-04 09:46 | -37.97377 | 145.09602 | 50 ft | 7 kts | 140° |
| 2026-05-04 09:47 | -37.97429 | 145.09619 | 52 ft | 8 kts | 176° |
| 2026-05-04 09:47 | -37.97494 | 145.09624 | 51 ft | 9 kts | 178° |
| 2026-05-04 09:49 | -37.98083 | 145.09677 | 43 ft | 13 kts | 177° |
| 2026-05-04 09:49 | -37.98171 | 145.09682 | 42 ft | 13 kts | 176° |
| 2026-05-04 09:49 | -37.98258 | 145.09691 | 41 ft | 12 kts | 176° |
| 2026-05-04 09:51 | -37.98203 | 145.10018 | 40 ft | 46 kts | 355° |
| 2026-05-04 09:51 | -37.97745 | 145.09980 | 109 ft | 80 kts | 350° |
| 2026-05-04 09:51 | -37.97197 | 145.09921 | 490 ft | 79 kts | 350° |
| 2026-05-04 09:51 | -37.96661 | 145.09844 | 871 ft | 77 kts | 351° |
| 2026-05-04 09:52 | -37.96152 | 145.10059 | 1289 ft | 85 kts | 20° |
| 2026-05-04 09:52 | -37.95767 | 145.10702 | 1678 ft | 100 kts | 48° |
| 2026-05-04 09:52 | -37.95556 | 145.11589 | 2047 ft | 109 kts | 57° |
| 2026-05-04 09:52 | -37.95309 | 145.12497 | 2421 ft | 103 kts | 38° |
| 2026-05-04 09:53 | -37.94838 | 145.12947 | 2775 ft | 75 kts | 349° |
| 2026-05-04 09:53 | -37.94308 | 145.13243 | 3138 ft | 89 kts | 9° |
| 2026-05-04 09:53 | -37.93769 | 145.13653 | 3514 ft | 92 kts | 12° |
| 2026-05-04 09:53 | -37.93227 | 145.14094 | 3876 ft | 95 kts | 14° |
| 2026-05-04 09:54 | -37.92672 | 145.14562 | 4245 ft | 96 kts | 15° |
| 2026-05-04 09:54 | -37.92108 | 145.15044 | 4615 ft | 100 kts | 16° |
| 2026-05-04 09:54 | -37.91530 | 145.15546 | 4989 ft | 104 kts | 17° |
| 2026-05-04 09:54 | -37.90851 | 145.16126 | 5022 ft | 132 kts | 21° |
| 2026-05-04 09:55 | -37.90043 | 145.16833 | 5028 ft | 148 kts | 22° |
| 2026-05-04 09:55 | -37.89168 | 145.17601 | 5030 ft | 157 kts | 23° |
| 2026-05-04 09:55 | -37.88241 | 145.18416 | 5029 ft | 163 kts | 23° |
| 2026-05-04 09:55 | -37.87298 | 145.19247 | 5031 ft | 167 kts | 24° |
| 2026-05-04 09:56 | -37.86346 | 145.20086 | 5104 ft | 166 kts | 24° |
| 2026-05-04 09:56 | -37.85464 | 145.20873 | 5613 ft | 143 kts | 22° |
| 2026-05-04 09:56 | -37.84686 | 145.21560 | 6019 ft | 138 kts | 20° |
| 2026-05-04 09:56 | -37.83834 | 145.22294 | 6024 ft | 161 kts | 27° |
| 2026-05-04 09:57 | -37.83253 | 145.23581 | 6030 ft | 181 kts | 74° |
| 2026-05-04 09:57 | -37.83468 | 145.25149 | 6027 ft | 185 kts | 116° |
| 2026-05-04 09:57 | -37.84097 | 145.26575 | 6030 ft | 183 kts | 121° |
| 2026-05-04 09:57 | -37.84742 | 145.27952 | 6031 ft | 182 kts | 122° |
| 2026-05-04 09:58 | -37.85399 | 145.29337 | 6027 ft | 183 kts | 122° |
| 2026-05-04 09:58 | -37.86048 | 145.30704 | 6031 ft | 183 kts | 122° |
| 2026-05-04 09:58 | -37.86705 | 145.32089 | 6032 ft | 184 kts | 122° |
| 2026-05-04 10:00 | -37.83443 | 145.40085 | 6030 ft | 170 kts | 32° |
| 2026-05-04 10:00 | -37.82573 | 145.41119 | 6033 ft | 175 kts | 32° |
| 2026-05-04 10:02 | -37.75716 | 145.47301 | 6034 ft | 172 kts | 21° |
| 2026-05-04 10:04 | -37.68640 | 145.52960 | 6055 ft | 175 kts | 21° |
| 2026-05-04 10:04 | -37.67960 | 145.53503 | 6058 ft | 175 kts | 22° |
| 2026-05-04 10:04 | -37.66931 | 145.54326 | 6076 ft | 173 kts | 22° |
| 2026-05-04 10:04 | -37.65964 | 145.55105 | 6433 ft | 154 kts | 20° |
| 2026-05-04 10:05 | -37.65107 | 145.55795 | 6832 ft | 143 kts | 19° |
| 2026-05-04 10:05 | -37.64261 | 145.56461 | 7062 ft | 145 kts | 19° |
| 2026-05-04 10:05 | -37.63408 | 145.57140 | 7330 ft | 145 kts | 19° |
| 2026-05-04 10:05 | -37.62548 | 145.57825 | 7589 ft | 145 kts | 19° |
| 2026-05-04 10:06 | -37.61694 | 145.58502 | 7820 ft | 147 kts | 19° |
| 2026-05-04 10:06 | -37.60826 | 145.59193 | 8037 ft | 149 kts | 19° |
| 2026-05-04 10:06 | -37.59905 | 145.59918 | 8055 ft | 163 kts | 19° |
| 2026-05-04 10:08 | -37.53789 | 145.64795 | 8067 ft | 177 kts | 21° |
| 2026-05-04 10:08 | -37.52757 | 145.65617 | 8070 ft | 176 kts | 22° |
| 2026-05-04 10:08 | -37.51717 | 145.66443 | 8069 ft | 176 kts | 22° |
| 2026-05-04 10:08 | -37.50689 | 145.67259 | 8068 ft | 177 kts | 22° |
| 2026-05-04 10:09 | -37.49637 | 145.68094 | 8072 ft | 177 kts | 22° |
| 2026-05-04 10:09 | -37.48649 | 145.69031 | 8074 ft | 189 kts | 42° |
| 2026-05-04 10:09 | -37.48209 | 145.70644 | 8070 ft | 205 kts | 77° |
| 2026-05-04 10:09 | -37.48136 | 145.72459 | 8072 ft | 206 kts | 81° |
| 2026-05-04 10:10 | -37.48098 | 145.74283 | 8067 ft | 208 kts | 82° |
| 2026-05-04 10:10 | -37.48064 | 145.76085 | 8067 ft | 208 kts | 82° |
| 2026-05-04 10:10 | -37.48036 | 145.77900 | 8075 ft | 208 kts | 82° |
| 2026-05-04 10:10 | -37.48010 | 145.79749 | 8067 ft | 209 kts | 82° |
| 2026-05-04 10:11 | -37.47991 | 145.81552 | 8072 ft | 203 kts | 81° |
| 2026-05-04 10:11 | -37.47710 | 145.83210 | 8074 ft | 185 kts | 47° |
| 2026-05-04 10:11 | -37.46783 | 145.84086 | 8077 ft | 159 kts | 4° |
| 2026-05-04 10:11 | -37.45763 | 145.83916 | 8221 ft | 142 kts | 334° |
| 2026-05-04 10:12 | -37.44926 | 145.83496 | 8805 ft | 116 kts | 332° |
| 2026-05-04 10:12 | -37.44254 | 145.83161 | 9452 ft | 96 kts | 332° |
| 2026-05-04 10:12 | -37.43628 | 145.82855 | 9841 ft | 97 kts | 332° |
| 2026-05-04 10:12 | -37.42993 | 145.82545 | 10172 ft | 98 kts | 332° |
| 2026-05-04 10:13 | -37.42347 | 145.82232 | 10507 ft | 100 kts | 332° |
| 2026-05-04 10:13 | -37.41697 | 145.81914 | 10842 ft | 101 kts | 332° |
| 2026-05-04 10:13 | -37.41043 | 145.81589 | 11205 ft | 102 kts | 332° |
| 2026-05-04 10:13 | -37.40377 | 145.81258 | 11544 ft | 103 kts | 332° |
| 2026-05-04 10:14 | -37.39701 | 145.80923 | 11857 ft | 105 kts | 332° |
| 2026-05-04 10:14 | -37.39021 | 145.80586 | 12186 ft | 106 kts | 332° |
| 2026-05-04 10:16 | -37.35006 | 145.76654 | 14601 ft | 108 kts | 312° |
| 2026-05-04 10:16 | -37.34494 | 145.75968 | 14918 ft | 108 kts | 312° |
| 2026-05-04 10:16 | -37.33971 | 145.75261 | 15085 ft | 119 kts | 312° |
| 2026-05-04 10:16 | -37.33369 | 145.74445 | 15090 ft | 135 kts | 312° |
| 2026-05-04 10:17 | -37.32617 | 145.73651 | 15100 ft | 148 kts | 332° |
| 2026-05-04 10:17 | -37.31554 | 145.73422 | 15098 ft | 165 kts | 356° |
| 2026-05-04 10:19 | -37.23906 | 145.79415 | 15099 ft | 190 kts | 24° |
| 2026-05-04 10:19 | -37.22816 | 145.80322 | 15095 ft | 189 kts | 24° |
| 2026-05-04 10:19 | -37.21725 | 145.81231 | 15099 ft | 188 kts | 24° |
| 2026-05-04 10:19 | -37.20626 | 145.82147 | 15102 ft | 189 kts | 24° |
| 2026-05-04 10:20 | -37.19523 | 145.83063 | 15099 ft | 189 kts | 23° |
| 2026-05-04 10:20 | -37.18438 | 145.83965 | 15095 ft | 188 kts | 23° |
| 2026-05-04 10:20 | -37.17353 | 145.84868 | 15095 ft | 188 kts | 24° |
| 2026-05-04 10:20 | -37.16253 | 145.85783 | 15095 ft | 188 kts | 23° |
| 2026-05-04 10:21 | -37.15175 | 145.86679 | 15098 ft | 188 kts | 23° |
| 2026-05-04 10:21 | -37.14083 | 145.87585 | 15104 ft | 187 kts | 23° |
| 2026-05-04 10:21 | -37.12999 | 145.88484 | 15102 ft | 187 kts | 23° |
| 2026-05-04 10:21 | -37.11916 | 145.89382 | 15100 ft | 187 kts | 23° |
| 2026-05-04 10:22 | -37.09745 | 145.91183 | 15104 ft | 187 kts | 23° |
| 2026-05-04 10:22 | -37.08664 | 145.92081 | 15103 ft | 185 kts | 23° |
| 2026-05-04 10:22 | -37.07594 | 145.92969 | 15104 ft | 183 kts | 23° |
| 2026-05-04 10:23 | -37.06519 | 145.93857 | 15107 ft | 184 kts | 23° |
| 2026-05-04 10:23 | -37.05455 | 145.94737 | 15104 ft | 185 kts | 23° |
| 2026-05-04 10:25 | -36.97902 | 146.00984 | 15108 ft | 186 kts | 23° |
| 2026-05-04 10:25 | -36.96824 | 146.01875 | 15114 ft | 185 kts | 22° |
| 2026-05-04 10:25 | -36.95755 | 146.02757 | 15112 ft | 185 kts | 23° |
| 2026-05-04 10:25 | -36.94679 | 146.03645 | 15112 ft | 185 kts | 22° |
| 2026-05-04 10:26 | -36.93599 | 146.04537 | 15111 ft | 186 kts | 22° |
| 2026-05-04 10:26 | -36.92527 | 146.05423 | 15114 ft | 186 kts | 22° |
| 2026-05-04 10:26 | -36.91441 | 146.06317 | 15119 ft | 186 kts | 22° |
| 2026-05-04 10:26 | -36.90365 | 146.07202 | 15117 ft | 187 kts | 23° |
| 2026-05-04 10:27 | -36.89271 | 146.08102 | 15122 ft | 186 kts | 22° |
| 2026-05-04 10:27 | -36.88203 | 146.08982 | 15120 ft | 185 kts | 22° |
| 2026-05-04 10:27 | -36.87122 | 146.09873 | 15119 ft | 185 kts | 22° |
| 2026-05-04 10:27 | -36.86045 | 146.10758 | 15118 ft | 185 kts | 22° |
| 2026-05-04 10:28 | -36.84964 | 146.11649 | 15123 ft | 186 kts | 23° |
| 2026-05-04 10:28 | -36.83881 | 146.12540 | 15119 ft | 187 kts | 22° |
| 2026-05-04 10:28 | -36.82797 | 146.13430 | 15117 ft | 187 kts | 22° |
| 2026-05-04 10:28 | -36.81720 | 146.14316 | 15122 ft | 186 kts | 23° |
| 2026-05-04 10:29 | -36.80624 | 146.15219 | 15120 ft | 186 kts | 22° |
| 2026-05-04 10:29 | -36.79548 | 146.16100 | 15123 ft | 185 kts | 22° |
| 2026-05-04 10:29 | -36.78473 | 146.16982 | 15124 ft | 186 kts | 23° |
| 2026-05-04 10:29 | -36.77399 | 146.17864 | 15121 ft | 186 kts | 22° |
| 2026-05-04 10:30 | -36.76315 | 146.18754 | 15123 ft | 185 kts | 22° |
| 2026-05-04 10:30 | -36.75240 | 146.19635 | 15125 ft | 184 kts | 22° |
| 2026-05-04 10:30 | -36.74164 | 146.20517 | 15123 ft | 184 kts | 23° |
| 2026-05-04 10:30 | -36.73096 | 146.21393 | 15131 ft | 184 kts | 23° |
| 2026-05-04 10:31 | -36.72036 | 146.22262 | 15123 ft | 184 kts | 23° |
| 2026-05-04 10:31 | -36.70966 | 146.23140 | 15126 ft | 183 kts | 23° |
| 2026-05-04 10:32 | -36.64604 | 146.28342 | 15129 ft | 182 kts | 23° |
| 2026-05-04 10:33 | -36.63551 | 146.29204 | 15129 ft | 182 kts | 23° |
| 2026-05-04 10:33 | -36.62482 | 146.30076 | 15131 ft | 182 kts | 23° |
| 2026-05-04 10:33 | -36.61426 | 146.30938 | 15128 ft | 182 kts | 23° |
| 2026-05-04 10:33 | -36.60373 | 146.31799 | 15127 ft | 182 kts | 23° |
| 2026-05-04 10:34 | -36.59304 | 146.32671 | 15132 ft | 182 kts | 23° |
| 2026-05-04 10:34 | -36.58257 | 146.33539 | 15129 ft | 182 kts | 24° |
| 2026-05-04 10:34 | -36.57213 | 146.34410 | 15134 ft | 182 kts | 24° |
| 2026-05-04 10:34 | -36.56154 | 146.35292 | 15132 ft | 182 kts | 24° |
| 2026-05-04 10:35 | -36.55105 | 146.36163 | 15135 ft | 181 kts | 24° |
| 2026-05-04 10:35 | -36.54062 | 146.37028 | 15132 ft | 181 kts | 24° |
| 2026-05-04 10:35 | -36.53009 | 146.37901 | 15132 ft | 181 kts | 24° |
| 2026-05-04 10:35 | -36.51964 | 146.38765 | 15138 ft | 181 kts | 24° |
| 2026-05-04 10:36 | -36.50920 | 146.39627 | 15139 ft | 181 kts | 24° |
| 2026-05-04 10:36 | -36.49859 | 146.40502 | 15132 ft | 181 kts | 24° |
| 2026-05-04 10:36 | -36.48815 | 146.41362 | 15131 ft | 181 kts | 24° |
| 2026-05-04 10:36 | -36.47770 | 146.42221 | 15129 ft | 181 kts | 24° |
| 2026-05-04 10:37 | -36.46711 | 146.43089 | 15135 ft | 181 kts | 24° |
| 2026-05-04 10:37 | -36.45665 | 146.43935 | 15137 ft | 179 kts | 22° |
| 2026-05-04 10:37 | -36.44577 | 146.44711 | 15137 ft | 179 kts | 21° |
| 2026-05-04 10:37 | -36.43521 | 146.45515 | 15135 ft | 180 kts | 23° |
| 2026-05-04 10:39 | -36.37244 | 146.50615 | 15137 ft | 179 kts | 24° |
| 2026-05-04 10:39 | -36.36200 | 146.51456 | 15136 ft | 179 kts | 24° |
| 2026-05-04 10:39 | -36.35146 | 146.52307 | 15138 ft | 179 kts | 24° |
| 2026-05-04 10:40 | -36.34103 | 146.53151 | 15137 ft | 179 kts | 24° |
| 2026-05-04 10:40 | -36.33066 | 146.53991 | 15133 ft | 179 kts | 24° |
| 2026-05-04 10:40 | -36.32037 | 146.54824 | 15142 ft | 178 kts | 24° |
| 2026-05-04 10:40 | -36.30996 | 146.55665 | 15144 ft | 178 kts | 24° |
| 2026-05-04 10:41 | -36.29959 | 146.56504 | 15143 ft | 179 kts | 24° |
| 2026-05-04 10:41 | -36.28907 | 146.57354 | 15139 ft | 178 kts | 24° |
| 2026-05-04 10:41 | -36.27869 | 146.58193 | 15142 ft | 179 kts | 24° |
| 2026-05-04 10:41 | -36.26813 | 146.59046 | 15143 ft | 180 kts | 24° |
| 2026-05-04 10:42 | -36.25767 | 146.59890 | 15142 ft | 180 kts | 24° |
| 2026-05-04 10:42 | -36.24724 | 146.60732 | 15140 ft | 180 kts | 24° |
| 2026-05-04 10:42 | -36.23685 | 146.61571 | 15143 ft | 180 kts | 24° |
| 2026-05-04 10:42 | -36.22629 | 146.62424 | 15145 ft | 180 kts | 24° |
| 2026-05-04 10:43 | -36.21577 | 146.63272 | 15139 ft | 180 kts | 24° |
| 2026-05-04 10:44 | -36.14259 | 146.69166 | 15144 ft | 179 kts | 24° |
| 2026-05-04 10:45 | -36.13209 | 146.70011 | 15145 ft | 179 kts | 24° |
| 2026-05-04 10:45 | -36.12179 | 146.70840 | 15151 ft | 178 kts | 24° |
| 2026-05-04 10:45 | -36.11129 | 146.71684 | 15144 ft | 178 kts | 24° |
| 2026-05-04 10:45 | -36.10098 | 146.72511 | 15148 ft | 178 kts | 24° |
| 2026-05-04 10:46 | -36.09402 | 146.73070 | 15157 ft | 179 kts | 24° |
| 2026-05-04 10:46 | -36.08002 | 146.74196 | 15149 ft | 179 kts | 24° |
| 2026-05-04 10:46 | -36.06969 | 146.75026 | 15153 ft | 178 kts | 24° |
| 2026-05-04 10:46 | -36.06275 | 146.75582 | 15153 ft | 178 kts | 24° |
| 2026-05-04 10:47 | -36.04893 | 146.76691 | 15153 ft | 177 kts | 24° |
| 2026-05-04 10:47 | -36.03851 | 146.77526 | 15150 ft | 177 kts | 24° |
| 2026-05-04 10:47 | -36.03175 | 146.78068 | 15150 ft | 176 kts | 24° |
| 2026-05-04 10:47 | -36.02143 | 146.78896 | 15150 ft | 176 kts | 25° |
| 2026-05-04 10:49 | -35.94958 | 146.84648 | 15153 ft | 176 kts | 24° |
| 2026-05-04 10:49 | -35.93923 | 146.85476 | 15156 ft | 175 kts | 24° |
| 2026-05-04 10:50 | -35.92906 | 146.86288 | 15157 ft | 176 kts | 24° |
| 2026-05-04 10:51 | -35.85763 | 146.91992 | 15160 ft | 173 kts | 24° |
| 2026-05-04 10:52 | -35.84758 | 146.92794 | 15158 ft | 173 kts | 24° |
| 2026-05-04 10:52 | -35.83757 | 146.93591 | 15167 ft | 172 kts | 24° |
| 2026-05-04 10:52 | -35.82746 | 146.94399 | 15159 ft | 171 kts | 24° |
| 2026-05-04 10:54 | -35.75730 | 146.99981 | 15168 ft | 171 kts | 24° |
| 2026-05-04 10:54 | -35.74737 | 147.00771 | 15167 ft | 171 kts | 24° |
| 2026-05-04 10:56 | -35.67718 | 147.06344 | 15174 ft | 171 kts | 24° |
| 2026-05-04 10:56 | -35.66724 | 147.07132 | 15172 ft | 170 kts | 24° |
| 2026-05-04 10:56 | -35.65762 | 147.07903 | 15172 ft | 160 kts | 24° |
| 2026-05-04 10:57 | -35.64858 | 147.08623 | 15174 ft | 151 kts | 23° |
| 2026-05-04 10:57 | -35.63983 | 147.09313 | 15178 ft | 145 kts | 22° |
| 2026-05-04 10:57 | -35.63150 | 147.09971 | 15175 ft | 142 kts | 22° |
| 2026-05-04 10:57 | -35.62318 | 147.10627 | 15172 ft | 140 kts | 22° |
| 2026-05-04 10:58 | -35.61516 | 147.11264 | 15160 ft | 134 kts | 22° |
| 2026-05-04 10:58 | -35.60723 | 147.11887 | 15037 ft | 137 kts | 22° |
| 2026-05-04 10:58 | -35.59904 | 147.12534 | 14870 ft | 141 kts | 22° |
| 2026-05-04 10:58 | -35.59072 | 147.13192 | 14704 ft | 144 kts | 22° |
| 2026-05-04 10:59 | -35.58231 | 147.13856 | 14546 ft | 146 kts | 22° |
| 2026-05-04 10:59 | -35.57372 | 147.14535 | 14371 ft | 146 kts | 22° |
| 2026-05-04 10:59 | -35.56521 | 147.15211 | 14210 ft | 146 kts | 22° |
| 2026-05-04 10:59 | -35.55667 | 147.15886 | 14047 ft | 146 kts | 22° |
| 2026-05-04 11:00 | -35.54812 | 147.16561 | 13881 ft | 147 kts | 22° |
| 2026-05-04 11:01 | -35.49583 | 147.20694 | 12583 ft | 103 kts | 19° |
| 2026-05-04 11:02 | -35.48983 | 147.21166 | 12401 ft | 101 kts | 19° |
| 2026-05-04 11:02 | -35.48402 | 147.21623 | 12210 ft | 100 kts | 19° |
| 2026-05-04 11:05 | -35.40308 | 147.27997 | 10435 ft | 99 kts | 19° |
| 2026-05-04 11:06 | -35.39722 | 147.28458 | 10309 ft | 99 kts | 19° |
| 2026-05-04 11:06 | -35.39140 | 147.28914 | 10204 ft | 99 kts | 19° |
| 2026-05-04 11:06 | -35.38558 | 147.29371 | 10084 ft | 100 kts | 19° |
| 2026-05-04 11:06 | -35.37978 | 147.29826 | 9964 ft | 99 kts | 19° |
| 2026-05-04 11:08 | -35.33636 | 147.33237 | 9072 ft | 121 kts | 21° |
| 2026-05-04 11:10 | -35.28999 | 147.36904 | 8162 ft | 92 kts | 19° |
| 2026-05-04 11:12 | -35.24856 | 147.40099 | 7323 ft | 107 kts | 19° |
| 2026-05-04 11:12 | -35.24234 | 147.40574 | 7198 ft | 105 kts | 20° |
| 2026-05-04 11:12 | -35.23626 | 147.41073 | 7078 ft | 107 kts | 21° |
| 2026-05-04 11:12 | -35.23005 | 147.41574 | 6961 ft | 107 kts | 21° |
| 2026-05-04 11:13 | -35.22388 | 147.42072 | 6827 ft | 100 kts | 21° |
| 2026-05-04 11:13 | -35.21869 | 147.42526 | 6588 ft | 86 kts | 21° |
| 2026-05-04 11:13 | -35.21377 | 147.42950 | 6155 ft | 90 kts | 19° |
| 2026-05-04 11:13 | -35.20844 | 147.43375 | 5664 ft | 93 kts | 19° |
| 2026-05-04 11:14 | -35.20300 | 147.43804 | 5179 ft | 94 kts | 19° |
| 2026-05-04 11:14 | -35.19743 | 147.44241 | 4674 ft | 94 kts | 19° |
| 2026-05-04 11:14 | -35.19194 | 147.44667 | 4230 ft | 93 kts | 19° |
| 2026-05-04 11:16 | -35.15727 | 147.45949 | 4195 ft | 100 kts | 279° |
| 2026-05-04 11:16 | -35.15761 | 147.45113 | 4221 ft | 97 kts | 279° |
| 2026-05-04 11:16 | -35.15816 | 147.44285 | 4225 ft | 97 kts | 277° |
| 2026-05-04 11:17 | -35.15865 | 147.43471 | 4219 ft | 97 kts | 278° |
| 2026-05-04 11:17 | -35.15954 | 147.42652 | 4213 ft | 106 kts | 261° |
| 2026-05-04 11:19 | -35.16536 | 147.47421 | 4231 ft | 128 kts | 79° |
| 2026-05-04 11:19 | -35.16925 | 147.48428 | 4248 ft | 140 kts | 140° |
| 2026-05-04 11:19 | -35.17815 | 147.48723 | 4243 ft | 132 kts | 199° |
| 2026-05-04 11:19 | -35.18449 | 147.48145 | 4254 ft | 106 kts | 260° |
| 2026-05-04 11:20 | -35.18535 | 147.47300 | 4233 ft | 100 kts | 279° |
| 2026-05-04 11:20 | -35.18567 | 147.46449 | 4237 ft | 100 kts | 278° |
| 2026-05-04 11:20 | -35.18603 | 147.45607 | 4262 ft | 99 kts | 279° |
| 2026-05-04 11:20 | -35.18635 | 147.44766 | 4256 ft | 99 kts | 278° |
| 2026-05-04 11:22 | -35.16773 | 147.44072 | 4203 ft | 128 kts | 75° |
| 2026-05-04 11:22 | -35.16732 | 147.45163 | 4213 ft | 128 kts | 79° |
| 2026-05-04 11:23 | -35.16691 | 147.46226 | 4230 ft | 124 kts | 71° |
| 2026-05-04 11:23 | -35.16603 | 147.47269 | 4239 ft | 125 kts | 75° |
| 2026-05-04 11:24 | -35.18505 | 147.45424 | 4215 ft | 100 kts | 278° |
| 2026-05-04 11:25 | -35.18536 | 147.44577 | 4205 ft | 100 kts | 278° |
| 2026-05-04 11:25 | -35.18572 | 147.43735 | 4224 ft | 99 kts | 278° |
| 2026-05-04 11:25 | -35.18602 | 147.42888 | 4205 ft | 100 kts | 278° |
| 2026-05-04 11:26 | -35.17931 | 147.41730 | 4208 ft | 90 kts | 342° |
| 2026-05-04 11:27 | -35.16623 | 147.47953 | 4262 ft | 133 kts | 104° |
| 2026-05-04 11:28 | -35.17281 | 147.48720 | 4270 ft | 135 kts | 166° |
| 2026-05-04 11:28 | -35.17875 | 147.48730 | 4291 ft | 123 kts | 209° |
| 2026-05-04 11:28 | -35.18390 | 147.47777 | 4258 ft | 100 kts | 276° |
| 2026-05-04 11:28 | -35.18404 | 147.47207 | 4259 ft | 99 kts | 279° |
| 2026-05-04 11:29 | -35.18421 | 147.46362 | 4260 ft | 100 kts | 277° |
| 2026-05-04 11:29 | -35.18449 | 147.45251 | 4295 ft | 98 kts | 278° |
| 2026-05-04 11:29 | -35.18466 | 147.44686 | 4249 ft | 102 kts | 277° |
| 2026-05-04 11:29 | -35.18494 | 147.43827 | 4257 ft | 100 kts | 278° |
| 2026-05-04 11:31 | -35.16740 | 147.44678 | 4238 ft | 129 kts | 84° |
| 2026-05-04 11:33 | -35.18599 | 147.46836 | 4261 ft | 97 kts | 277° |
| 2026-05-04 11:33 | -35.18622 | 147.46003 | 4274 ft | 97 kts | 277° |
| 2026-05-04 11:33 | -35.18655 | 147.45181 | 4277 ft | 98 kts | 276° |
| 2026-05-04 11:34 | -35.18676 | 147.44357 | 4279 ft | 97 kts | 277° |
| 2026-05-04 11:34 | -35.18681 | 147.43524 | 4279 ft | 96 kts | 279° |
| 2026-05-04 11:34 | -35.18609 | 147.42740 | 4285 ft | 91 kts | 298° |
| 2026-05-04 11:34 | -35.18173 | 147.42199 | 4267 ft | 92 kts | 332° |
| 2026-05-04 11:35 | -35.17515 | 147.42140 | 4248 ft | 101 kts | 5° |
| 2026-05-04 11:35 | -35.16905 | 147.42640 | 4251 ft | 115 kts | 39° |
| 2026-05-04 11:35 | -35.16672 | 147.43634 | 4197 ft | 133 kts | 82° |
| 2026-05-04 11:35 | -35.16705 | 147.44756 | 4251 ft | 128 kts | 88° |
| 2026-05-04 11:36 | -35.16692 | 147.45826 | 4240 ft | 127 kts | 78° |
| 2026-05-04 11:36 | -35.16605 | 147.46911 | 4212 ft | 126 kts | 69° |
| 2026-05-04 11:36 | -35.16355 | 147.47919 | 4182 ft | 124 kts | 63° |
| 2026-05-04 11:36 | -35.16096 | 147.48913 | 4216 ft | 121 kts | 62° |
| 2026-05-04 11:37 | -35.15835 | 147.49894 | 4202 ft | 122 kts | 60° |
| 2026-05-04 11:37 | -35.15563 | 147.50886 | 4207 ft | 121 kts | 60° |
| 2026-05-04 11:37 | -35.15277 | 147.51849 | 4192 ft | 122 kts | 59° |
| 2026-05-04 11:37 | -35.14989 | 147.52814 | 4129 ft | 123 kts | 60° |
| 2026-05-04 11:38 | -35.14718 | 147.53803 | 4005 ft | 121 kts | 62° |
| 2026-05-04 11:38 | -35.14450 | 147.54780 | 3872 ft | 122 kts | 62° |
| 2026-05-04 11:38 | -35.14184 | 147.55782 | 3728 ft | 123 kts | 62° |
| 2026-05-04 11:38 | -35.13911 | 147.56762 | 3599 ft | 122 kts | 60° |
| 2026-05-04 11:39 | -35.13633 | 147.57745 | 3484 ft | 122 kts | 62° |
| 2026-05-04 11:39 | -35.13358 | 147.58743 | 3307 ft | 126 kts | 62° |
| 2026-05-04 11:40 | -35.12063 | 147.58857 | 2906 ft | 108 kts | 271° |
| 2026-05-04 11:41 | -35.12031 | 147.57972 | 2872 ft | 104 kts | 283° |
| 2026-05-04 11:41 | -35.11956 | 147.57107 | 2838 ft | 106 kts | 274° |
| 2026-05-04 11:41 | -35.12198 | 147.56232 | 2718 ft | 107 kts | 258° |
| 2026-05-04 11:41 | -35.12480 | 147.55448 | 2416 ft | 95 kts | 256° |
| 2026-05-04 11:42 | -35.12768 | 147.54741 | 2133 ft | 91 kts | 251° |
| 2026-05-04 11:42 | -35.13065 | 147.54027 | 2034 ft | 96 kts | 253° |
| 2026-05-04 11:42 | -35.13382 | 147.53292 | 1832 ft | 102 kts | 250° |
| 2026-05-04 11:42 | -35.13706 | 147.52493 | 1645 ft | 104 kts | 248° |
| 2026-05-04 11:43 | -35.14105 | 147.51781 | 1583 ft | 97 kts | 236° |
| 2026-05-04 11:43 | -35.14475 | 147.51149 | 1489 ft | 103 kts | 243° |
| 2026-05-04 11:43 | -35.14828 | 147.50330 | 1317 ft | 113 kts | 247° |
| 2026-05-04 11:43 | -35.15186 | 147.49473 | 1155 ft | 112 kts | 245° |
| 2026-05-04 11:44 | -35.15551 | 147.48648 | 978 ft | 110 kts | 243° |
| 2026-05-04 11:44 | -35.15911 | 147.47840 | 763 ft | 107 kts | 244° |
| 2026-05-04 11:44 | -35.16223 | 147.47132 | 713 ft | 73 kts | 242° |
| 2026-05-04 11:44 | -35.16408 | 147.46718 | 716 ft | 43 kts | 248° |
| 2026-05-04 11:45 | -35.16408 | 147.46531 | 714 ft | 17 kts | 331° |
| 2026-05-04 11:45 | -35.16372 | 147.46507 | 714 ft | 0 kts | 332° |
| 2026-05-04 11:47 | -35.16350 | 147.46494 | 716 ft | 4 kts | 334° |
| 2026-05-04 11:48 | -35.16329 | 147.46480 | 713 ft | 3 kts | 330° |
| 2026-05-04 11:48 | -35.16312 | 147.46468 | 711 ft | 3 kts | 327° |
| 2026-05-04 11:48 | -35.16296 | 147.46458 | 713 ft | 3 kts | 335° |
| 2026-05-04 11:48 | -35.16280 | 147.46449 | 713 ft | 3 kts | 332° |
| 2026-05-04 11:49 | -35.16276 | 147.46446 | 715 ft | 0 kts | 330° |